createdAt,value
2018-10-21T00:01:46.358Z,99.90
2018-10-21T00:04:13.635Z,99.90
2018-10-21T00:06:40.893Z,99.90
2018-10-21T00:09:09.881Z,99.90
2018-10-21T00:11:37.137Z,99.90
2018-10-21T00:14:04.478Z,99.90
2018-10-21T00:16:34.094Z,99.90
2018-10-21T00:19:01.948Z,99.90
2018-10-21T00:21:29.205Z,99.90
2018-10-21T00:23:56.706Z,99.90
2018-10-21T00:26:24.189Z,99.90
2018-10-21T00:28:51.525Z,99.90
2018-10-21T00:31:18.880Z,99.90
2018-10-21T00:33:46.221Z,99.90
2018-10-21T00:36:13.614Z,99.90
2018-10-21T00:38:40.897Z,99.90
2018-10-21T00:41:08.186Z,99.90
2018-10-21T00:43:35.402Z,99.90
2018-10-21T00:46:02.784Z,99.90
2018-10-21T00:48:30.066Z,99.90
2018-10-21T00:50:57.630Z,99.90
2018-10-21T00:53:24.872Z,99.90
2018-10-21T00:55:52.169Z,99.90
2018-10-21T00:58:19.454Z,99.90
2018-10-21T01:00:46.728Z,99.90
2018-10-21T01:03:13.956Z,99.90
2018-10-21T01:05:41.217Z,99.90
2018-10-21T01:08:08.410Z,99.90
2018-10-21T01:10:35.650Z,99.90
2018-10-21T01:13:02.853Z,99.90
2018-10-21T01:15:30.051Z,99.90
2018-10-21T01:17:57.366Z,99.90
2018-10-21T01:20:24.581Z,99.90
2018-10-21T01:22:51.777Z,99.90
2018-10-21T01:25:19.056Z,99.90
2018-10-21T01:27:46.270Z,99.90
2018-10-21T01:30:13.462Z,99.90
2018-10-21T01:32:40.816Z,99.90
2018-10-21T01:35:08.553Z,99.90
2018-10-21T01:37:35.917Z,99.90
2018-10-21T01:40:35.251Z,99.90
2018-10-21T01:43:02.877Z,99.90
2018-10-21T01:45:30.117Z,99.90
2018-10-21T01:48:00.355Z,99.90
2018-10-21T01:50:27.623Z,99.90
2018-10-21T01:52:56.309Z,99.90
2018-10-21T01:55:23.753Z,99.90
2018-10-21T01:57:50.969Z,99.90
2018-10-21T02:00:18.383Z,99.90
2018-10-21T02:02:45.802Z,99.90
2018-10-21T02:05:13.019Z,99.90
2018-10-21T02:07:40.242Z,99.90
2018-10-21T02:10:07.469Z,99.90
2018-10-21T02:12:34.693Z,99.90
2018-10-21T02:15:02.146Z,99.90
2018-10-21T02:17:29.330Z,99.90
2018-10-21T02:19:56.492Z,99.90
2018-10-21T02:22:23.730Z,99.90
2018-10-21T02:24:51.894Z,99.90
2018-10-21T02:27:19.201Z,99.90
2018-10-21T02:29:46.385Z,99.90
2018-10-21T02:32:13.626Z,99.90
2018-10-21T02:34:40.806Z,99.90
2018-10-21T02:37:08.190Z,99.90
2018-10-21T02:39:35.482Z,99.90
2018-10-21T02:42:02.702Z,99.90
2018-10-21T02:44:29.905Z,99.90
2018-10-21T02:46:57.497Z,99.90
2018-10-21T02:49:24.734Z,99.90
2018-10-21T02:51:57.632Z,99.90
2018-10-21T02:54:26.013Z,99.90
2018-10-21T02:56:53.297Z,99.90
2018-10-21T02:59:21.073Z,99.90
2018-10-21T03:01:48.360Z,99.90
2018-10-21T03:04:15.607Z,99.90
2018-10-21T03:06:42.788Z,99.90
2018-10-21T03:09:10.092Z,99.90
2018-10-21T03:11:37.313Z,99.90
2018-10-21T03:14:04.555Z,99.90
2018-10-21T03:16:31.895Z,99.90
2018-10-21T03:18:59.117Z,99.90
2018-10-21T03:21:26.326Z,99.90
2018-10-21T03:23:53.509Z,99.90
2018-10-21T03:26:20.753Z,99.90
2018-10-21T03:28:47.989Z,99.90
2018-10-21T03:31:15.210Z,99.90
2018-10-21T03:33:42.560Z,99.90
2018-10-21T03:36:09.773Z,99.90
2018-10-21T03:38:36.990Z,99.90
2018-10-21T03:41:04.229Z,99.90
2018-10-21T03:43:31.432Z,99.90
2018-10-21T03:45:58.672Z,99.90
2018-10-21T03:48:25.870Z,99.90
2018-10-21T03:50:53.093Z,99.90
2018-10-21T03:53:20.272Z,99.90
2018-10-21T03:55:47.485Z,99.90
2018-10-21T03:58:14.732Z,99.90
2018-10-21T04:00:41.919Z,99.90
2018-10-21T04:03:09.173Z,99.90
2018-10-21T04:05:36.641Z,99.90
2018-10-21T04:08:03.945Z,99.90
2018-10-21T04:10:31.298Z,99.90
2018-10-21T04:12:58.901Z,99.90
2018-10-21T04:15:26.125Z,99.90
2018-10-21T04:17:53.621Z,99.90
2018-10-21T04:20:20.861Z,99.90
2018-10-21T04:22:50.608Z,99.90
2018-10-21T04:25:18.139Z,99.90
2018-10-21T04:27:45.387Z,99.90
2018-10-21T04:30:19.193Z,99.90
2018-10-21T04:32:47.806Z,99.90
2018-10-21T04:35:15.047Z,99.90
2018-10-21T04:40:06.601Z,99.90
2018-10-21T04:42:33.818Z,99.90
2018-10-21T04:45:01.497Z,99.90
2018-10-21T04:47:29.078Z,99.90
2018-10-21T04:49:56.393Z,99.90
2018-10-21T04:52:23.652Z,99.90
2018-10-21T04:54:50.844Z,99.90
2018-10-21T04:57:18.021Z,99.90
2018-10-21T04:59:45.322Z,99.90
2018-10-21T05:02:12.582Z,99.90
2018-10-21T05:04:39.776Z,99.90
2018-10-21T05:07:06.989Z,99.90
2018-10-21T05:09:34.241Z,99.90
2018-10-21T05:12:01.514Z,99.90
2018-10-21T05:14:28.714Z,99.90
2018-10-21T05:16:55.917Z,99.90
2018-10-21T05:19:23.110Z,99.90
2018-10-21T05:21:50.445Z,99.90
2018-10-21T05:24:17.669Z,99.90
2018-10-21T05:26:44.915Z,99.90
2018-10-21T05:29:12.165Z,99.90
2018-10-21T05:31:39.425Z,99.90
2018-10-21T05:34:06.681Z,99.90
2018-10-21T05:36:33.929Z,99.90
2018-10-21T05:39:01.125Z,99.90
2018-10-21T05:41:28.358Z,99.90
2018-10-21T05:43:55.614Z,99.90
2018-10-21T05:46:34.181Z,99.90
2018-10-21T05:49:01.387Z,99.90
2018-10-21T05:51:28.597Z,99.90
2018-10-21T05:53:55.820Z,99.90
2018-10-21T05:56:22.987Z,99.90
2018-10-21T05:58:50.185Z,99.90
2018-10-21T06:01:17.374Z,99.90
2018-10-21T06:03:44.584Z,99.90
2018-10-21T06:06:11.786Z,99.90
2018-10-21T06:08:39.040Z,99.90
2018-10-21T06:11:06.206Z,99.90
2018-10-21T06:13:33.429Z,99.90
2018-10-21T06:16:00.709Z,99.90
2018-10-21T06:18:28.614Z,99.90
2018-10-21T06:20:59.680Z,99.90
2018-10-21T06:23:26.945Z,99.90
2018-10-21T06:25:54.149Z,99.90
2018-10-21T06:28:21.361Z,99.90
2018-10-21T06:30:48.571Z,99.90
2018-10-21T06:33:15.835Z,99.90
2018-10-21T06:35:42.984Z,99.90
2018-10-21T06:38:10.244Z,99.90
2018-10-21T06:40:37.415Z,99.90
2018-10-21T06:43:04.909Z,99.90
2018-10-21T06:45:32.105Z,99.90
2018-10-21T06:47:59.362Z,99.90
2018-10-21T06:50:26.609Z,99.90
2018-10-21T06:52:53.783Z,99.90
2018-10-21T06:55:21.217Z,99.90
2018-10-21T06:57:48.515Z,99.90
2018-10-21T07:00:15.763Z,99.90
2018-10-21T07:02:42.974Z,99.90
2018-10-21T07:05:22.478Z,99.90
2018-10-21T07:07:49.989Z,99.90
2018-10-21T07:10:17.860Z,99.90
2018-10-21T07:12:45.101Z,99.90
2018-10-21T07:15:12.378Z,99.90
2018-10-21T07:17:39.594Z,99.90
2018-10-21T07:20:06.966Z,99.90
2018-10-21T07:22:34.189Z,99.90
2018-10-21T07:25:01.441Z,99.90
2018-10-21T07:27:28.633Z,99.90
2018-10-21T07:29:56.985Z,99.90
2018-10-21T07:32:24.176Z,99.90
2018-10-21T07:34:51.380Z,99.90
2018-10-21T07:37:18.567Z,99.90
2018-10-21T07:39:45.812Z,99.90
2018-10-21T07:42:13.137Z,99.90
2018-10-21T07:44:40.338Z,99.90
2018-10-21T07:47:07.527Z,99.90
2018-10-21T07:49:34.758Z,99.90
2018-10-21T07:52:02.006Z,99.90
2018-10-21T07:54:29.225Z,99.90
2018-10-21T07:56:56.397Z,99.90
2018-10-21T07:59:23.606Z,99.90
2018-10-21T08:01:50.877Z,99.90
2018-10-21T08:04:18.109Z,99.90
2018-10-21T08:06:56.845Z,99.90
2018-10-21T08:09:24.036Z,99.90
2018-10-21T08:11:51.260Z,99.90
2018-10-21T08:14:18.538Z,99.90
2018-10-21T08:16:45.810Z,99.90
2018-10-21T08:19:13.398Z,99.90
2018-10-21T08:21:40.928Z,99.90
2018-10-21T08:24:08.149Z,99.90
2018-10-21T08:26:35.438Z,99.90
2018-10-21T08:29:02.649Z,99.90
2018-10-21T08:31:29.850Z,99.90
2018-10-21T08:33:57.113Z,99.90
2018-10-21T08:36:24.278Z,99.90
2018-10-21T08:38:51.513Z,99.90
2018-10-21T08:41:18.732Z,99.90
2018-10-21T08:43:46.013Z,99.90
2018-10-21T08:46:13.339Z,99.90
2018-10-21T08:48:40.583Z,99.90
2018-10-21T08:51:07.801Z,99.90
2018-10-21T08:53:34.987Z,99.90
2018-10-21T08:56:02.313Z,99.90
2018-10-21T08:58:29.685Z,99.90
2018-10-21T09:00:56.936Z,99.90
2018-10-21T09:03:24.197Z,99.90
2018-10-21T09:05:51.404Z,99.90
2018-10-21T09:08:18.608Z,99.90
2018-10-21T09:10:46.029Z,99.90
2018-10-21T09:13:13.973Z,99.90
2018-10-21T09:15:41.183Z,99.90
2018-10-21T09:18:08.397Z,99.90
2018-10-21T09:20:35.606Z,99.90
2018-10-21T09:23:02.893Z,99.90
2018-10-21T09:25:30.141Z,99.60
2018-10-21T09:27:57.372Z,99.70
2018-10-21T09:30:24.571Z,99.80
2018-10-21T09:32:51.844Z,99.70
2018-10-21T09:35:19.121Z,99.80
2018-10-21T09:37:46.342Z,99.90
2018-10-21T09:40:15.057Z,99.90
2018-10-21T09:42:42.585Z,99.90
2018-10-21T09:45:11.927Z,99.90
2018-10-21T09:47:39.184Z,99.90
2018-10-21T09:50:06.546Z,99.70
2018-10-21T09:52:33.745Z,99.10
2018-10-21T09:55:00.953Z,99.10
2018-10-21T09:57:28.214Z,98.80
2018-10-21T09:59:55.434Z,98.30
2018-10-21T10:02:28.554Z,98.50
2018-10-21T10:04:55.818Z,98.50
2018-10-21T10:07:23.126Z,98.30
2018-10-21T10:09:50.429Z,97.70
2018-10-21T10:12:17.780Z,97.80
2018-10-21T10:14:45.101Z,97.40
2018-10-21T10:17:12.314Z,96.70
2018-10-21T10:19:39.505Z,96.50
2018-10-21T10:22:06.720Z,96.70
2018-10-21T10:24:33.938Z,96.80
2018-10-21T10:27:01.169Z,96.70
2018-10-21T10:29:28.495Z,96.20
2018-10-21T10:31:55.819Z,96.30
2018-10-21T10:34:23.046Z,96.20
2018-10-21T10:36:50.255Z,96.60
2018-10-21T10:39:17.464Z,96.20
2018-10-21T10:41:44.752Z,95.70
2018-10-21T10:44:12.050Z,95.60
2018-10-21T10:46:39.260Z,95.20
2018-10-21T10:49:06.543Z,95.20
2018-10-21T10:51:33.990Z,95.20
2018-10-21T10:54:01.463Z,95.10
2018-10-21T10:56:28.744Z,95.20
2018-10-21T10:58:56.017Z,95.20
2018-10-21T11:01:23.242Z,95.00
2018-10-21T11:03:50.565Z,95.00
2018-10-21T11:06:17.893Z,95.00
2018-10-21T11:08:45.246Z,94.70
2018-10-21T11:11:12.494Z,94.40
2018-10-21T11:13:39.957Z,94.50
2018-10-21T11:16:07.503Z,94.00
2018-10-21T11:18:34.811Z,94.10
2018-10-21T11:22:26.774Z,94.10
2018-10-21T11:24:56.142Z,94.50
2018-10-21T11:27:23.415Z,93.40
2018-10-21T11:29:50.639Z,93.60
2018-10-21T11:32:17.882Z,93.50
2018-10-21T11:34:45.092Z,93.70
2018-10-21T11:37:12.606Z,93.80
2018-10-21T11:39:39.925Z,93.10
2018-10-21T11:42:07.277Z,93.30
2018-10-21T11:44:34.531Z,92.90
2018-10-21T11:47:01.738Z,92.30
2018-10-21T11:49:29.060Z,92.00
2018-10-21T11:51:56.373Z,91.80
2018-10-21T11:54:23.657Z,92.40
2018-10-21T11:56:50.885Z,92.50
2018-10-21T11:59:18.122Z,92.00
2018-10-21T12:01:45.443Z,91.70
2018-10-21T12:04:12.866Z,90.70
2018-10-21T12:06:39.896Z,90.00
2018-10-21T12:09:09.736Z,89.30
2018-10-21T12:11:37.023Z,89.30
2018-10-21T12:14:04.908Z,89.40
2018-10-21T12:16:32.209Z,88.00
2018-10-21T12:18:59.455Z,87.40
2018-10-21T12:21:26.724Z,87.90
2018-10-21T12:23:53.963Z,89.50
2018-10-21T12:26:21.257Z,90.50
2018-10-21T12:28:48.911Z,91.10
2018-10-21T12:31:16.210Z,91.90
2018-10-21T12:33:44.112Z,92.20
2018-10-21T12:36:12.496Z,92.30
2018-10-21T12:38:39.750Z,91.80
2018-10-21T12:41:07.093Z,91.90
2018-10-21T12:43:35.342Z,91.80
2018-10-21T12:46:02.600Z,91.60
2018-10-21T12:48:29.930Z,91.20
2018-10-21T12:50:57.154Z,91.60
2018-10-21T12:53:24.446Z,92.00
2018-10-21T12:55:53.082Z,91.60
2018-10-21T12:58:20.324Z,90.90
2018-10-21T13:00:57.455Z,90.60
2018-10-21T13:03:24.698Z,90.80
2018-10-21T13:05:52.469Z,90.80
2018-10-21T13:08:19.841Z,91.00
2018-10-21T13:10:47.054Z,91.00
2018-10-21T13:13:14.297Z,90.50
2018-10-21T13:15:41.546Z,90.30
2018-10-21T13:18:08.777Z,90.10
2018-10-21T13:20:36.209Z,85.60
2018-10-21T13:23:03.853Z,81.40
2018-10-21T13:25:31.062Z,75.20
2018-10-21T13:27:58.355Z,70.00
2018-10-21T13:30:25.755Z,65.80
2018-10-21T13:32:52.993Z,58.80
2018-10-21T13:35:20.237Z,62.10
2018-10-21T13:37:48.046Z,67.40
2018-10-21T13:40:16.378Z,72.80
2018-10-21T13:42:43.709Z,76.80
2018-10-21T13:45:11.026Z,80.70
2018-10-21T13:47:41.322Z,80.70
2018-10-21T13:50:08.551Z,82.10
2018-10-21T13:52:35.821Z,83.40
2018-10-21T13:55:03.234Z,84.90
2018-10-21T13:57:30.463Z,84.70
2018-10-21T13:59:57.682Z,84.70
2018-10-21T14:02:25.069Z,85.00
2018-10-21T14:04:52.273Z,85.40
2018-10-21T14:07:19.534Z,84.60
2018-10-21T14:09:46.755Z,84.70
2018-10-21T14:12:13.964Z,83.70
2018-10-21T14:14:41.182Z,82.00
2018-10-21T14:17:08.569Z,80.00
2018-10-21T14:19:35.794Z,77.70
2018-10-21T14:22:03.150Z,77.60
2018-10-21T14:24:30.410Z,78.70
2018-10-21T14:26:57.684Z,80.80
2018-10-21T14:29:24.973Z,82.20
2018-10-21T14:32:55.676Z,83.80
2018-10-21T14:35:23.089Z,85.00
2018-10-21T14:37:50.397Z,86.30
2018-10-21T14:40:17.756Z,87.70
2018-10-21T14:42:45.081Z,88.00
2018-10-21T14:45:12.530Z,88.90
2018-10-21T14:47:40.218Z,89.00
2018-10-21T14:50:07.953Z,89.40
2018-10-21T14:52:35.635Z,90.10
2018-10-21T14:55:02.903Z,90.30
2018-10-21T14:57:30.245Z,90.50
2018-10-21T14:59:57.758Z,90.50
2018-10-21T15:02:25.031Z,90.70
2018-10-21T15:04:52.586Z,91.00
2018-10-21T15:07:19.849Z,91.10
2018-10-21T15:09:47.202Z,91.30
2018-10-21T15:12:14.570Z,91.00
2018-10-21T15:14:41.953Z,90.90
2018-10-21T15:17:09.386Z,89.50
2018-10-21T15:19:36.894Z,87.70
2018-10-21T15:22:05.034Z,84.80
2018-10-21T15:24:32.346Z,83.20
2018-10-21T15:26:59.611Z,82.40
2018-10-21T15:29:26.832Z,82.20
2018-10-21T15:31:54.229Z,82.30
2018-10-21T15:34:21.546Z,82.80
2018-10-21T15:39:47.157Z,82.70
2018-10-21T15:42:14.585Z,83.60
2018-10-21T15:44:41.953Z,84.70
2018-10-21T15:47:09.282Z,85.80
2018-10-21T15:49:36.558Z,87.60
2018-10-21T15:52:03.961Z,88.60
2018-10-21T15:54:32.297Z,90.10
2018-10-21T15:56:59.694Z,91.00
2018-10-21T15:59:26.981Z,91.40
2018-10-21T16:01:54.219Z,91.80
2018-10-21T16:04:21.530Z,92.40
2018-10-21T16:06:48.896Z,92.70
2018-10-21T16:09:16.358Z,93.40
2018-10-21T16:11:43.650Z,94.00
2018-10-21T16:14:10.975Z,94.50
2018-10-21T16:16:38.241Z,94.80
2018-10-21T16:19:05.632Z,95.40
2018-10-21T16:21:33.070Z,95.70
2018-10-21T16:24:00.456Z,96.00
2018-10-21T16:26:27.822Z,96.40
2018-10-21T16:28:55.129Z,96.70
2018-10-21T16:31:22.441Z,96.80
2018-10-21T16:33:49.729Z,97.10
2018-10-21T16:36:16.974Z,97.40
2018-10-21T16:38:44.266Z,97.40
2018-10-21T16:41:11.452Z,97.60
2018-10-21T16:43:38.798Z,98.00
2018-10-21T16:46:06.188Z,98.40
2018-10-21T16:48:33.431Z,98.80
2018-10-21T16:51:00.712Z,99.00
2018-10-21T16:53:28.159Z,99.10
2018-10-21T16:55:55.418Z,99.40
2018-10-21T16:58:22.812Z,99.80
2018-10-21T17:00:50.298Z,99.60
2018-10-21T17:03:17.440Z,99.70
2018-10-21T17:05:44.657Z,99.90
2018-10-21T17:08:11.977Z,99.90
2018-10-21T17:10:39.380Z,99.90
2018-10-21T17:13:06.532Z,99.90
2018-10-21T17:15:33.810Z,99.90
2018-10-21T17:18:01.185Z,99.90
2018-10-21T17:20:28.406Z,99.90
2018-10-21T17:22:55.764Z,99.90
2018-10-21T17:25:23.060Z,99.90
2018-10-21T17:27:50.311Z,99.90
2018-10-21T17:30:18.271Z,99.90
2018-10-21T17:32:45.766Z,99.90
2018-10-21T17:35:12.993Z,99.90
2018-10-21T17:37:40.320Z,99.90
2018-10-21T17:40:08.544Z,99.90
2018-10-21T17:42:35.805Z,99.90
2018-10-21T17:45:03.334Z,99.90
2018-10-21T17:47:30.532Z,99.90
2018-10-21T17:49:57.814Z,99.90
2018-10-21T17:52:25.109Z,99.90
2018-10-21T17:54:52.458Z,99.90
2018-10-21T17:57:19.701Z,99.90
2018-10-21T17:59:46.926Z,99.90
2018-10-21T18:02:14.140Z,99.90
2018-10-21T18:04:41.445Z,99.90
2018-10-21T18:07:08.771Z,99.90
2018-10-21T18:09:35.929Z,99.90
2018-10-21T18:12:03.181Z,99.90
2018-10-21T18:14:30.357Z,99.90
2018-10-21T18:16:57.546Z,99.90
2018-10-21T18:19:24.876Z,99.90
2018-10-21T18:21:52.083Z,99.90
2018-10-21T18:24:19.493Z,99.90
2018-10-21T18:26:46.718Z,99.90
2018-10-21T18:29:14.022Z,99.90
2018-10-21T18:31:41.342Z,99.90
2018-10-21T18:34:08.584Z,99.90
2018-10-21T18:36:35.761Z,99.90
2018-10-21T18:39:04.757Z,99.90
2018-10-21T18:41:32.049Z,99.90
2018-10-21T18:43:59.342Z,99.90
2018-10-21T18:46:28.602Z,99.90
2018-10-21T18:48:56.040Z,99.90
2018-10-21T18:51:24.077Z,99.90
2018-10-21T18:53:51.897Z,99.90
2018-10-21T18:56:24.382Z,99.90
2018-10-21T18:58:51.691Z,99.90
2018-10-21T19:01:19.312Z,99.90
2018-10-21T19:03:47.267Z,99.90
2018-10-21T19:06:16.107Z,99.90
2018-10-21T19:08:43.801Z,99.90
2018-10-21T19:11:12.908Z,99.90
2018-10-21T19:13:40.907Z,99.90
2018-10-21T19:16:08.721Z,99.90
2018-10-21T19:18:36.524Z,99.90
2018-10-21T19:21:04.381Z,99.90
2018-10-21T19:23:32.258Z,99.90
2018-10-21T19:25:59.934Z,99.90
2018-10-21T19:28:27.523Z,99.90
2018-10-21T19:30:55.221Z,99.90
2018-10-21T19:33:25.146Z,99.90
2018-10-21T19:35:52.984Z,99.90
2018-10-21T19:38:20.681Z,99.90
2018-10-21T19:40:48.579Z,99.90
2018-10-21T19:43:16.659Z,99.90
2018-10-21T19:45:44.495Z,99.90
2018-10-21T19:48:12.545Z,99.90
2018-10-21T19:50:40.731Z,99.90
2018-10-21T19:53:08.508Z,99.90
2018-10-21T19:55:36.384Z,99.90
2018-10-21T19:58:04.544Z,99.90
2018-10-21T20:00:32.229Z,99.90
2018-10-21T20:03:00.105Z,99.90
2018-10-21T20:05:28.150Z,99.90
2018-10-21T20:07:55.993Z,99.90
2018-10-21T20:10:24.419Z,99.90
2018-10-21T20:12:51.932Z,99.90
2018-10-21T20:15:19.623Z,99.90
2018-10-21T20:17:47.275Z,99.90
2018-10-21T20:20:15.108Z,99.90
2018-10-21T20:22:43.757Z,99.90
2018-10-21T20:25:11.432Z,99.90
2018-10-21T20:27:39.153Z,99.90
2018-10-21T20:30:08.981Z,99.90
2018-10-21T20:32:37.043Z,99.90
2018-10-21T20:35:06.651Z,99.90
2018-10-21T20:37:35.478Z,99.90
2018-10-21T20:40:03.461Z,99.90
2018-10-21T20:42:31.210Z,99.90
2018-10-21T20:44:58.714Z,99.90
2018-10-21T20:47:26.206Z,99.90
2018-10-21T20:49:53.827Z,99.90
2018-10-21T20:52:21.349Z,99.90
2018-10-21T20:54:49.615Z,99.90
2018-10-21T20:57:17.146Z,99.90
2018-10-21T20:59:45.798Z,99.90
2018-10-21T21:02:14.222Z,99.90
2018-10-21T21:04:41.741Z,99.90
2018-10-21T21:07:09.915Z,99.90
2018-10-21T21:09:38.316Z,99.90
2018-10-21T21:12:06.111Z,99.90
2018-10-21T21:14:33.930Z,99.90
2018-10-21T21:17:01.789Z,99.90
2018-10-21T21:19:29.318Z,99.90
2018-10-21T21:21:56.888Z,99.90
2018-10-21T21:24:24.581Z,99.90
2018-10-21T21:26:52.068Z,99.90
2018-10-21T21:29:19.627Z,99.90
2018-10-21T21:31:47.287Z,99.90
2018-10-21T21:34:15.472Z,99.90
2018-10-21T21:36:43.031Z,99.90
2018-10-21T21:39:12.276Z,99.90
2018-10-21T21:41:40.511Z,99.90
2018-10-21T21:44:08.235Z,99.90
2018-10-21T21:46:36.270Z,99.90
2018-10-21T21:49:04.252Z,99.90
2018-10-21T21:51:31.796Z,99.90
2018-10-21T21:53:59.474Z,99.90
2018-10-21T21:56:26.904Z,99.90
2018-10-21T21:58:54.475Z,99.90
2018-10-21T22:01:22.119Z,99.90
2018-10-21T22:03:49.613Z,99.90
2018-10-21T22:06:17.288Z,99.90
2018-10-21T22:08:44.805Z,99.90
2018-10-21T22:11:12.316Z,99.90
2018-10-21T22:13:39.806Z,99.90
2018-10-21T22:16:07.526Z,99.90
2018-10-21T22:18:35.025Z,99.90
2018-10-21T22:21:02.515Z,99.90
2018-10-21T22:23:30.353Z,99.90
2018-10-21T22:25:57.913Z,99.90
2018-10-21T22:28:25.521Z,99.90
2018-10-21T22:30:54.361Z,99.90
2018-10-21T22:33:21.941Z,99.90
2018-10-21T22:35:49.404Z,99.90
2018-10-21T22:38:17.131Z,99.90
2018-10-21T22:40:44.656Z,99.90
2018-10-21T22:43:12.289Z,99.90
2018-10-21T22:45:39.827Z,99.90
2018-10-21T22:48:07.467Z,99.90
2018-10-21T22:50:35.231Z,99.90
2018-10-21T22:53:02.796Z,99.90
2018-10-21T22:55:30.301Z,99.90
2018-10-21T22:57:57.888Z,99.90
2018-10-21T23:00:25.727Z,99.90
2018-10-21T23:02:53.834Z,99.90
2018-10-21T23:05:22.143Z,99.90
2018-10-21T23:07:49.796Z,99.90
2018-10-21T23:10:17.960Z,99.90
2018-10-21T23:12:45.572Z,99.90
2018-10-21T23:15:13.271Z,99.90
2018-10-21T23:17:42.222Z,99.90
2018-10-21T23:20:10.954Z,99.90
2018-10-21T23:22:38.501Z,99.90
2018-10-21T23:25:06.614Z,99.90
2018-10-21T23:27:34.224Z,99.90
2018-10-21T23:30:01.929Z,99.90
2018-10-21T23:32:29.440Z,99.90
2018-10-21T23:34:58.121Z,99.90
2018-10-21T23:37:25.833Z,99.90
2018-10-21T23:39:53.396Z,99.90
2018-10-21T23:42:20.930Z,99.90
2018-10-21T23:44:48.554Z,99.90
2018-10-21T23:47:16.079Z,99.90
2018-10-21T23:49:43.649Z,99.90
2018-10-21T23:52:11.162Z,99.90
2018-10-21T23:54:38.757Z,99.90
2018-10-21T23:57:07.033Z,99.90
2018-10-21T23:59:35.184Z,99.90
